createdAt,value
2023-05-22T00:00:24.686Z,39.86
2023-05-22T00:03:36.696Z,41.24
2023-05-22T00:06:46.561Z,41.89
2023-05-22T00:09:54.135Z,42.03
2023-05-22T00:13:02.462Z,40.47
2023-05-22T00:16:10.457Z,44.52
2023-05-22T00:19:17.445Z,43.35
2023-05-22T00:22:35.959Z,42.43
2023-05-22T00:25:43.568Z,45.48
2023-05-22T00:28:52.750Z,42.20
2023-05-22T00:32:00.611Z,44.30
2023-05-22T00:35:08.425Z,42.05
2023-05-22T00:38:33.472Z,40.96
2023-05-22T00:41:41.593Z,41.73
2023-05-22T00:44:55.601Z,40.20
2023-05-22T00:48:02.383Z,39.27
2023-05-22T00:51:25.257Z,40.24
2023-05-22T00:54:50.693Z,41.81
2023-05-22T00:58:19.742Z,43.00
2023-05-22T01:01:43.458Z,42.21
2023-05-22T01:05:13.623Z,39.86
2023-05-22T01:08:34.489Z,39.46
2023-05-22T01:12:22.007Z,38.34
2023-05-22T01:16:17.986Z,39.24
2023-05-22T01:20:10.439Z,38.30
2023-05-22T01:24:26.095Z,38.91
2023-05-22T01:28:19.453Z,40.97
2023-05-22T01:31:33.037Z,39.09
2023-05-22T01:34:51.662Z,40.09
2023-05-22T01:38:05.034Z,40.11
2023-05-22T01:41:12.458Z,38.69
2023-05-22T01:44:18.492Z,36.10
2023-05-22T01:47:43.262Z,37.66
2023-05-22T01:51:15.130Z,37.30
2023-05-22T01:54:46.687Z,39.75
2023-05-22T01:58:32.561Z,37.58
2023-05-22T02:02:04.253Z,39.85
2023-05-22T02:05:36.041Z,37.72
2023-05-22T02:08:59.893Z,36.04
2023-05-22T02:12:22.098Z,36.98
2023-05-22T02:15:43.187Z,40.08
2023-05-22T02:19:06.890Z,40.54
2023-05-22T02:22:31.616Z,38.20
2023-05-22T02:25:52.616Z,36.91
2023-05-22T02:29:13.912Z,36.51
2023-05-22T02:32:35.066Z,36.03
2023-05-22T02:35:57.274Z,37.33
2023-05-22T02:39:21.249Z,40.53
2023-05-22T02:42:42.125Z,36.65
2023-05-22T02:46:03.124Z,37.10
2023-05-22T02:49:24.393Z,38.29
2023-05-22T02:52:45.635Z,36.87
2023-05-22T02:56:11.012Z,36.40
2023-05-22T02:59:33.230Z,36.85
2023-05-22T03:02:54.241Z,38.97
2023-05-22T03:06:02.145Z,37.56
2023-05-22T03:09:08.973Z,36.17
2023-05-22T03:12:18.459Z,37.42
2023-05-22T03:15:26.928Z,38.61
2023-05-22T03:18:38.619Z,36.44
2023-05-22T03:21:45.720Z,37.15
2023-05-22T03:24:53.858Z,38.43
2023-05-22T03:28:02.999Z,38.55
2023-05-22T03:31:14.221Z,37.95
2023-05-22T03:34:36.697Z,40.80
2023-05-22T03:37:44.654Z,38.25
2023-05-22T03:40:59.879Z,37.88
2023-05-22T03:44:17.126Z,38.56
2023-05-22T03:47:23.221Z,36.48
2023-05-22T03:50:30.033Z,36.28
2023-05-22T03:53:36.032Z,37.18
2023-05-22T03:56:42.811Z,37.52
2023-05-22T03:59:53.366Z,38.56
2023-05-22T04:03:07.092Z,36.57
2023-05-22T04:06:28.181Z,39.29
2023-05-22T04:09:35.850Z,37.76
2023-05-22T04:13:00.561Z,37.13
2023-05-22T04:16:24.384Z,35.41
2023-05-22T04:19:45.394Z,34.98
2023-05-22T04:23:07.550Z,38.39
2023-05-22T04:26:29.945Z,36.20
2023-05-22T04:29:50.931Z,36.95
2023-05-22T04:33:14.628Z,36.74
2023-05-22T04:36:22.576Z,39.24
2023-05-22T04:39:29.738Z,37.53
2023-05-22T04:42:38.585Z,35.29
2023-05-22T04:45:50.370Z,38.01
2023-05-22T04:49:02.439Z,39.08
2023-05-22T04:52:11.854Z,38.82
2023-05-22T04:55:19.535Z,38.32
2023-05-22T04:58:27.701Z,36.65
2023-05-22T05:01:35.948Z,35.21
2023-05-22T05:04:45.164Z,33.93
2023-05-22T05:07:53.779Z,34.42
2023-05-22T05:11:15.215Z,34.91
2023-05-22T05:14:36.865Z,35.98
2023-05-22T05:17:58.345Z,33.75
2023-05-22T05:21:23.610Z,33.78
2023-05-22T05:24:44.771Z,35.65
2023-05-22T05:28:11.121Z,33.58
2023-05-22T05:31:38.338Z,33.76
2023-05-22T05:35:13.360Z,33.27
2023-05-22T05:38:42.108Z,36.09
2023-05-22T05:42:10.450Z,33.46
2023-05-22T05:45:31.981Z,32.96
2023-05-22T05:48:44.700Z,33.02
2023-05-22T05:51:51.177Z,34.90
2023-05-22T05:55:02.611Z,32.70
2023-05-22T05:58:09.909Z,34.72
2023-05-22T06:01:29.897Z,34.81
2023-05-22T06:04:51.378Z,33.36
2023-05-22T06:08:13.814Z,32.06
2023-05-22T06:11:38.341Z,35.43
2023-05-22T06:14:59.642Z,32.41
2023-05-22T06:18:20.847Z,47.11
2023-05-22T06:21:28.944Z,32.52
2023-05-22T06:24:35.228Z,33.11
2023-05-22T06:27:51.245Z,30.38
2023-05-22T06:30:58.379Z,29.97
2023-05-22T06:34:08.289Z,31.08
2023-05-22T06:37:15.170Z,31.91
2023-05-22T06:40:31.122Z,29.84
2023-05-22T06:43:53.662Z,31.75
2023-05-22T06:47:10.773Z,31.37
2023-05-22T06:50:17.348Z,30.09
2023-05-22T06:53:25.878Z,28.25
2023-05-22T06:56:32.325Z,29.49
2023-05-22T07:00:01.848Z,30.27
2023-05-22T07:03:41.528Z,29.18
2023-05-22T07:07:33.106Z,29.39
2023-05-22T07:10:54.767Z,28.55
2023-05-22T07:14:16.555Z,26.95
2023-05-22T07:17:42.194Z,26.66
2023-05-22T07:20:50.505Z,29.10
2023-05-22T07:23:59.843Z,29.24
2023-05-22T07:27:07.461Z,29.02
2023-05-22T07:30:16.321Z,29.58
2023-05-22T07:33:26.446Z,26.42
2023-05-22T07:36:37.516Z,25.43
2023-05-22T07:39:47.118Z,25.94
2023-05-22T07:43:09.456Z,25.88
2023-05-22T07:46:30.935Z,24.59
2023-05-22T07:49:51.483Z,22.76
2023-05-22T07:52:58.610Z,24.10
2023-05-22T07:56:11.684Z,24.20
2023-05-22T07:59:21.398Z,22.85
2023-05-22T08:02:32.202Z,23.33
2023-05-22T08:05:41.257Z,23.38
2023-05-22T08:08:48.383Z,23.41
2023-05-22T08:11:56.247Z,23.96
2023-05-22T08:15:06.611Z,22.04
2023-05-22T08:18:14.955Z,25.89
2023-05-22T08:21:29.955Z,24.67
2023-05-22T08:24:36.180Z,24.98
2023-05-22T08:27:43.248Z,25.43
2023-05-22T08:30:49.470Z,28.74
2023-05-22T08:34:05.226Z,27.16
2023-05-22T08:37:14.382Z,27.25
2023-05-22T08:40:25.073Z,27.21
2023-05-22T08:43:32.403Z,28.38
2023-05-22T08:46:44.589Z,26.62
2023-05-22T08:50:07.236Z,28.20
2023-05-22T08:53:24.345Z,28.77
2023-05-22T08:56:33.335Z,28.13
2023-05-22T08:59:42.951Z,29.68
2023-05-22T09:02:52.752Z,29.17
2023-05-22T09:06:00.035Z,29.05
2023-05-22T09:09:31.141Z,28.39
2023-05-22T09:12:38.879Z,28.46
2023-05-22T09:15:44.990Z,29.26
2023-05-22T09:18:52.617Z,26.85
2023-05-22T09:22:09.877Z,38.69
2023-05-22T09:25:28.173Z,34.68
2023-05-22T09:28:38.083Z,27.44
2023-05-22T09:31:46.831Z,30.06
2023-05-22T09:35:11.977Z,35.83
2023-05-22T09:38:25.608Z,29.16
2023-05-22T09:41:42.470Z,23.86
2023-05-22T09:44:52.582Z,26.87
2023-05-22T09:47:58.932Z,26.60
2023-05-22T09:51:07.956Z,29.46
2023-05-22T09:54:17.942Z,29.62
2023-05-22T09:57:29.793Z,29.61
2023-05-22T10:00:40.378Z,28.44
2023-05-22T10:03:49.621Z,27.19
2023-05-22T10:07:00.177Z,28.51
2023-05-22T10:10:28.300Z,29.42
2023-05-22T10:13:38.899Z,30.40
2023-05-22T10:16:47.909Z,28.25
2023-05-22T10:19:57.499Z,27.44
2023-05-22T10:23:12.784Z,30.63
2023-05-22T10:26:22.956Z,27.17
2023-05-22T10:29:43.858Z,27.75
2023-05-22T10:33:01.371Z,29.90
2023-05-22T10:36:17.250Z,29.51
2023-05-22T10:39:46.544Z,29.92
2023-05-22T10:42:52.912Z,29.29
2023-05-22T10:46:16.928Z,30.50
2023-05-22T10:49:28.842Z,30.43
2023-05-22T10:52:36.124Z,31.37
2023-05-22T10:55:51.367Z,29.81
2023-05-22T10:59:11.415Z,29.65
2023-05-22T11:02:32.154Z,27.98
2023-05-22T11:05:42.841Z,28.50
2023-05-22T11:08:53.428Z,29.52
2023-05-22T11:12:21.046Z,29.00
2023-05-22T11:15:41.066Z,26.58
2023-05-22T11:18:51.209Z,29.28
2023-05-22T11:22:11.643Z,26.56
2023-05-22T11:25:22.725Z,28.59
2023-05-22T11:28:30.709Z,27.46
2023-05-22T11:31:39.972Z,27.84
2023-05-22T11:34:50.883Z,27.26
2023-05-22T11:37:59.419Z,28.29
2023-05-22T11:41:05.813Z,27.91
2023-05-22T11:44:17.547Z,27.65
2023-05-22T11:47:23.867Z,28.72
2023-05-22T11:50:47.683Z,28.84
2023-05-22T11:53:56.620Z,30.02
2023-05-22T11:57:08.566Z,27.90
2023-05-22T12:00:17.401Z,30.06
2023-05-22T12:03:26.091Z,29.65
2023-05-22T12:06:36.381Z,30.17
2023-05-22T12:09:45.107Z,30.09
2023-05-22T12:12:52.336Z,29.25
2023-05-22T12:16:03.329Z,30.86
2023-05-22T12:19:12.684Z,32.22
2023-05-22T12:22:29.270Z,29.73
2023-05-22T12:25:40.194Z,30.92
2023-05-22T12:28:46.617Z,30.55
2023-05-22T12:31:56.592Z,30.31
2023-05-22T12:35:09.297Z,31.01
2023-05-22T12:38:29.903Z,31.77
2023-05-22T12:41:39.607Z,32.18
2023-05-22T12:44:49.606Z,30.84
2023-05-22T12:47:55.699Z,31.62
2023-05-22T12:51:02.725Z,32.19
2023-05-22T12:54:11.482Z,30.48
2023-05-22T12:57:18.972Z,29.94
2023-05-22T13:00:40.932Z,30.96
2023-05-22T13:04:02.692Z,31.57
2023-05-22T13:07:13.694Z,29.30
2023-05-22T13:10:23.110Z,30.83
2023-05-22T13:13:36.275Z,31.71
2023-05-22T13:16:51.017Z,31.31
2023-05-22T13:19:59.330Z,29.95
2023-05-22T13:23:05.271Z,28.75
2023-05-22T13:26:15.757Z,31.42
2023-05-22T13:29:21.997Z,30.98
2023-05-22T13:32:37.448Z,29.31
2023-05-22T13:35:43.574Z,31.18
2023-05-22T13:38:50.675Z,32.31
2023-05-22T13:41:59.801Z,34.87
2023-05-22T13:45:08.178Z,30.05
2023-05-22T13:48:14.524Z,32.63
2023-05-22T13:51:21.688Z,31.39
2023-05-22T13:54:27.880Z,31.05
2023-05-22T13:57:40.870Z,32.42
2023-05-22T14:00:47.187Z,31.43
2023-05-22T14:03:54.493Z,31.82
2023-05-22T14:07:00.767Z,32.14
2023-05-22T14:10:16.095Z,31.65
2023-05-22T14:13:32.699Z,32.68
2023-05-22T14:16:40.721Z,33.82
2023-05-22T14:19:48.301Z,33.45
2023-05-22T14:22:58.096Z,35.28
2023-05-22T14:26:04.795Z,33.42
2023-05-22T14:29:16.835Z,32.96
2023-05-22T14:32:22.984Z,32.40
2023-05-22T14:35:32.235Z,32.93
2023-05-22T14:38:38.519Z,33.70
2023-05-22T14:41:48.321Z,35.80
2023-05-22T14:44:56.812Z,34.00
2023-05-22T14:48:03.624Z,33.04
2023-05-22T14:51:09.684Z,32.93
2023-05-22T14:54:18.082Z,34.26
2023-05-22T14:57:29.908Z,34.92
2023-05-22T15:00:42.944Z,34.25
2023-05-22T15:03:48.939Z,32.60
2023-05-22T15:06:56.102Z,31.21
2023-05-22T15:10:02.626Z,32.63
2023-05-22T15:13:24.957Z,32.89
2023-05-22T15:16:35.081Z,34.73
2023-05-22T15:19:44.104Z,33.98
2023-05-22T15:22:50.199Z,35.59
2023-05-22T15:25:58.780Z,34.50
2023-05-22T15:29:04.734Z,33.74
2023-05-22T15:32:16.646Z,35.64
2023-05-22T15:35:23.178Z,37.36
2023-05-22T15:38:31.272Z,34.90
2023-05-22T15:41:41.190Z,34.51
2023-05-22T15:44:50.719Z,35.99
2023-05-22T15:48:00.421Z,36.40
2023-05-22T15:51:16.263Z,37.95
2023-05-22T15:54:22.613Z,39.46
2023-05-22T15:57:31.184Z,37.44
2023-05-22T16:00:41.436Z,37.05
2023-05-22T16:03:51.053Z,35.58
2023-05-22T16:06:57.302Z,34.97
2023-05-22T16:10:10.374Z,34.50
2023-05-22T16:13:16.859Z,35.83
2023-05-22T16:16:37.835Z,34.68
2023-05-22T16:20:08.375Z,36.02
2023-05-22T16:23:30.195Z,36.63
2023-05-22T16:26:51.115Z,35.49
2023-05-22T16:30:15.167Z,37.12
2023-05-22T16:33:37.799Z,34.55
2023-05-22T16:37:04.968Z,34.55
2023-05-22T16:40:13.105Z,34.85
2023-05-22T16:43:28.371Z,36.53
2023-05-22T16:46:35.452Z,37.92
2023-05-22T16:49:46.639Z,38.51
2023-05-22T16:52:57.989Z,38.36
2023-05-22T16:56:03.861Z,35.71
2023-05-22T16:59:10.690Z,41.48
2023-05-22T17:02:16.912Z,38.29
2023-05-22T17:05:24.532Z,42.04
2023-05-22T17:08:33.208Z,43.27
2023-05-22T17:11:40.280Z,48.22
2023-05-22T17:14:46.391Z,51.91
2023-05-22T17:17:53.360Z,68.64
2023-05-22T17:21:00.989Z,85.48
2023-05-22T17:24:23.504Z,67.75
2023-05-22T17:27:35.963Z,56.16
2023-05-22T17:30:47.059Z,43.30
2023-05-22T17:33:53.057Z,44.31
2023-05-22T17:37:01.803Z,43.96
2023-05-22T17:40:12.994Z,48.41
2023-05-22T17:43:20.235Z,47.39
2023-05-22T17:46:26.981Z,43.69
2023-05-22T17:49:33.931Z,46.26
2023-05-22T17:52:43.015Z,48.59
2023-05-22T17:55:55.425Z,48.89
2023-05-22T17:59:01.758Z,53.77
2023-05-22T18:02:09.056Z,55.32
2023-05-22T18:05:15.184Z,55.70
2023-05-22T18:08:22.493Z,56.23
2023-05-22T18:11:34.972Z,54.72
2023-05-22T18:14:42.434Z,56.79
2023-05-22T18:18:03.755Z,56.67
2023-05-22T18:21:26.450Z,51.07
2023-05-22T18:24:47.416Z,52.53
2023-05-22T18:28:11.715Z,50.36
2023-05-22T18:31:33.050Z,50.23
2023-05-22T18:34:54.702Z,53.22
2023-05-22T18:38:02.583Z,54.00
2023-05-22T18:41:15.368Z,51.40
2023-05-22T18:44:25.369Z,53.83
2023-05-22T18:47:31.508Z,51.27
2023-05-22T18:50:38.391Z,53.93
2023-05-22T18:53:44.459Z,54.72
2023-05-22T18:56:51.422Z,57.08
2023-05-22T19:00:00.405Z,62.10
2023-05-22T19:03:11.617Z,64.94
2023-05-22T19:06:19.192Z,63.62
2023-05-22T19:09:26.131Z,62.19
2023-05-22T19:12:32.289Z,62.80
2023-05-22T19:15:41.852Z,60.41
2023-05-22T19:18:51.095Z,62.34
2023-05-22T19:21:58.079Z,59.57
2023-05-22T19:25:04.245Z,58.50
2023-05-22T19:28:11.251Z,58.76
2023-05-22T19:31:19.917Z,56.66
2023-05-22T19:34:26.779Z,56.20
2023-05-22T19:37:32.790Z,57.70
2023-05-22T19:40:40.122Z,55.33
2023-05-22T19:44:01.366Z,64.05
2023-05-22T19:47:25.511Z,59.56
2023-05-22T19:50:46.631Z,62.99
2023-05-22T19:54:07.824Z,64.68
2023-05-22T19:57:29.572Z,65.71
2023-05-22T20:00:51.580Z,66.61
2023-05-22T20:04:01.373Z,66.54
2023-05-22T20:07:08.688Z,67.61
2023-05-22T20:10:15.286Z,69.36
2023-05-22T20:13:22.139Z,72.56
2023-05-22T20:16:29.582Z,70.56
2023-05-22T20:19:39.164Z,71.16
2023-05-22T20:22:46.152Z,68.92
2023-05-22T20:25:53.280Z,69.54
2023-05-22T20:28:59.367Z,69.18
2023-05-22T20:32:06.340Z,68.87
2023-05-22T20:35:19.069Z,68.68
2023-05-22T20:38:42.767Z,69.60
2023-05-22T20:42:05.031Z,69.44
2023-05-22T20:45:26.771Z,71.47
2023-05-22T20:48:48.573Z,76.21
2023-05-22T20:52:13.629Z,76.55
2023-05-22T20:55:34.530Z,75.85
2023-05-22T20:58:55.447Z,77.71
2023-05-22T21:02:16.358Z,81.39
2023-05-22T21:05:37.487Z,79.13
2023-05-22T21:09:02.229Z,79.91
2023-05-22T21:12:23.081Z,78.41
2023-05-22T21:15:45.167Z,80.01
2023-05-22T21:18:52.032Z,80.19
2023-05-22T21:21:58.139Z,82.17
2023-05-22T21:25:08.749Z,82.86
2023-05-22T21:28:14.654Z,84.80
2023-05-22T21:31:21.512Z,87.24
2023-05-22T21:34:47.009Z,84.11
2023-05-22T21:38:08.002Z,78.95
2023-05-22T21:41:38.639Z,82.40
2023-05-22T21:44:59.566Z,84.45
2023-05-22T21:48:20.560Z,83.94
2023-05-22T21:51:41.386Z,84.28
2023-05-22T21:55:02.754Z,83.60
2023-05-22T21:58:28.852Z,87.13
2023-05-22T22:01:49.962Z,90.40
2023-05-22T22:05:11.920Z,88.82
2023-05-22T22:08:32.808Z,86.66
2023-05-22T22:11:39.633Z,90.55
2023-05-22T22:14:49.299Z,88.79
2023-05-22T22:17:59.585Z,86.84
2023-05-22T22:21:06.141Z,87.21
2023-05-22T22:24:13.485Z,92.80
2023-05-22T22:27:20.045Z,89.27
2023-05-22T22:30:29.461Z,93.05
2023-05-22T22:33:50.394Z,98.60
2023-05-22T22:37:11.911Z,94.90
2023-05-22T22:40:32.737Z,93.49
2023-05-22T22:43:56.478Z,93.81
2023-05-22T22:47:20.103Z,88.74
2023-05-22T22:50:41.882Z,87.31
2023-05-22T22:54:03.022Z,90.21
2023-05-22T22:57:23.960Z,92.05
2023-05-22T23:00:45.249Z,92.89
2023-05-22T23:04:22.405Z,92.26
2023-05-22T23:07:45.561Z,96.22
2023-05-22T23:11:09.382Z,96.03
2023-05-22T23:14:37.894Z,95.13
2023-05-22T23:17:59.583Z,94.89
2023-05-22T23:21:23.084Z,95.58
2023-05-22T23:24:44.081Z,93.33
2023-05-22T23:28:23.579Z,93.64
2023-05-22T23:31:50.803Z,90.29
2023-05-22T23:35:12.791Z,94.08
2023-05-22T23:38:38.968Z,91.92
2023-05-22T23:42:08.644Z,92.05
2023-05-22T23:45:31.757Z,91.67
2023-05-22T23:48:38.622Z,93.94
2023-05-22T23:51:44.574Z,87.81
2023-05-22T23:54:54.049Z,93.99
2023-05-22T23:58:00.196Z,94.80
